Time;durP1;ratioP1;P1;durP2;ratioP2;P2;SDS_P1;SDS_P2;PMS_P1;PMS_P2;Temp;Humidity;BMP_temperature;BMP_pressure;BME280_temperature;BME280_humidity;BME280_pressure;Samples;Min_cycle;Max_cycle;Signal;HPM_P1;HPM_P2
2021/07/29 00:01:40;;;;;;;;;;;;;;;17.29;100.00;100330.81;5111907;28;19966;-71
2021/07/29 00:04:06;;;;;;;;;;;;;;;17.33;100.00;100329.41;5112285;28;19963;-72
2021/07/29 00:06:33;;;;;;;;;;;;;;;17.37;100.00;100317.03;5111982;28;20427;-72
2021/07/29 00:08:59;;;;;;;;;;;;;;;17.40;100.00;100325.78;5111637;28;19963;-71
2021/07/29 00:11:25;;;;;;;;;;;;;;;17.43;100.00;100319.09;5111910;28;20383;-71
2021/07/29 00:13:53;;;;;;;;;;;;;;;17.46;100.00;100320.63;5111784;28;19990;-71
2021/07/29 00:16:21;;;;;;;;;;;;;;;17.51;100.00;100319.03;5111920;28;19927;-72
2021/07/29 00:19:04;;;;;;;;;;;;;;;17.55;100.00;100317.63;5111973;28;19959;-72
2021/07/29 00:21:31;;;;;;;;;;;;;;;17.58;100.00;100316.41;5112023;28;19931;-71
2021/07/29 00:23:57;;;;;;;;;;;;;;;17.62;100.00;100316.91;5111999;28;20227;-71
2021/07/29 00:26:23;;;;;;;;;;;;;;;17.71;100.00;100313.94;5114669;28;19978;-71
2021/07/29 00:28:50;;;;;;;;;;;;;;;17.75;100.00;100314.44;5115339;28;19923;-72
2021/07/29 00:31:16;;;;;;;;;;;;;;;17.85;100.00;100303.19;5115530;28;20371;-71
2021/07/29 00:33:43;;;;;;;;;;;;;;;17.94;100.00;100304.88;5115983;28;19928;-72
2021/07/29 00:36:19;;;;;;;;;;;;;;;18.01;100.00;100305.88;5115373;28;19924;-71
2021/07/29 00:38:45;;;;;;;;;;;;;;;18.02;100.00;100306.72;5115644;28;19928;-71
2021/07/29 00:41:11;;;;;;;;;;;;;;;17.98;100.00;100299.91;5115632;28;19959;-65
2021/07/29 00:43:38;;;;;;;;;;;;;;;17.97;100.00;100298.19;5115648;28;19966;-65
2021/07/29 00:46:04;;;;;;;;;;;;;;;17.94;100.00;100299.41;5113976;28;20038;-66
2021/07/29 00:48:30;;;;;;;;;;;;;;;17.94;100.00;100298.56;5115127;28;20007;-66
2021/07/29 00:50:57;;;;;;;;;;;;;;;17.91;100.00;100303.31;5115636;28;19924;-65
2021/07/29 00:53:24;;;;;;;;;;;;;;;17.87;100.00;100306.63;5115160;28;19977;-66
2021/07/29 00:55:51;;;;;;;;;;;;;;;17.85;100.00;100303.19;5115170;28;19974;-65
2021/07/29 00:58:17;;;;;;;;;;;;;;;17.80;100.00;100302.91;5115125;28;19962;-65
2021/07/29 01:00:43;;;;;;;;;;;;;;;17.86;100.00;100313.16;5115577;28;19972;-65
2021/07/29 01:03:09;;;;;;;;;;;;;;;17.97;100.00;100317.41;5115477;28;19924;-65
2021/07/29 01:05:36;;;;;;;;;;;;;;;18.03;100.00;100302.94;5114522;27;19969;-65
2021/07/29 01:08:02;;;;;;;;;;;;;;;18.07;100.00;100307.03;5113699;28;20445;-65
2021/07/29 01:10:30;;;;;;;;;;;;;;;18.07;100.00;100307.03;5115054;28;19923;-65
2021/07/29 01:12:56;;;;;;;;;;;;;;;18.06;100.00;100310.81;5114888;28;20357;-65
2021/07/29 01:15:22;;;;;;;;;;;;;;;18.03;100.00;100308.44;5114998;27;19923;-65
2021/07/29 01:17:48;;;;;;;;;;;;;;;18.01;100.00;100310.50;5114865;27;20711;-65
2021/07/29 01:20:20;;;;;;;;;;;;;;;17.97;100.00;100300.91;5115040;28;19951;-65
2021/07/29 01:22:46;;;;;;;;;;;;;;;17.95;100.00;100297.53;5114811;28;20018;-66
2021/07/29 01:25:13;;;;;;;;;;;;;;;17.91;100.00;100297.84;5114548;28;20033;-65
2021/07/29 01:27:39;;;;;;;;;;;;;;;17.94;100.00;100301.31;5114597;28;19953;-65
2021/07/29 01:30:06;;;;;;;;;;;;;;;17.91;100.00;100303.31;5114681;27;20018;-66
2021/07/29 01:32:32;;;;;;;;;;;;;;;17.94;100.00;100299.41;5114750;28;19931;-70
2021/07/29 01:34:58;;;;;;;;;;;;;;;17.96;100.00;100299.22;5114208;28;19963;-70
2021/07/29 01:37:26;;;;;;;;;;;;;;;17.93;100.00;100294.09;5113690;28;19966;-65
2021/07/29 01:39:52;;;;;;;;;;;;;;;17.85;100.00;100287.59;5114533;28;19972;-72
2021/07/29 01:42:19;;;;;;;;;;;;;;;17.79;100.00;100282.84;5114444;28;19974;-71
2021/07/29 01:44:45;;;;;;;;;;;;;;;17.67;100.00;100287.88;5114513;28;19998;-71
2021/07/29 01:47:11;;;;;;;;;;;;;;;17.56;100.00;100289.16;5113839;28;19977;-71
2021/07/29 01:49:38;;;;;;;;;;;;;;;17.48;100.00;100283.72;5114730;28;19966;-71
2021/07/29 01:52:04;;;;;;;;;;;;;;;17.44;100.00;100285.13;5114218;28;20031;-71
2021/07/29 01:54:32;;;;;;;;;;;;;;;17.38;100.00;100292.19;5114515;28;20343;-71
2021/07/29 01:56:58;;;;;;;;;;;;;;;17.30;100.00;100289.47;5112563;28;20023;-72
2021/07/29 01:59:24;;;;;;;;;;;;;;;17.22;100.00;100286.78;5114130;28;19984;-72
2021/07/29 02:01:51;;;;;;;;;;;;;;;17.13;100.00;100288.72;5113952;28;19959;-71
2021/07/29 02:04:17;;;;;;;;;;;;;;;17.00;100.00;100293.91;5114248;28;20456;-72
2021/07/29 02:06:43;;;;;;;;;;;;;;;16.86;100.00;100289.97;5113941;28;20014;-71
2021/07/29 02:09:10;;;;;;;;;;;;;;;16.71;100.00;100292.59;5113713;28;19943;-72
2021/07/29 02:11:37;;;;;;;;;;;;;;;16.56;100.00;100287.00;5114186;28;19955;-72
2021/07/29 02:14:05;;;;;;;;;;;;;;;16.40;100.00;100288.72;5112534;28;19924;-72
2021/07/29 02:16:31;;;;;;;;;;;;;;;16.27;100.00;100293.03;5113591;28;19953;-72
2021/07/29 02:18:57;;;;;;;;;;;;;;;16.11;100.00;100294.72;5113597;28;19963;-71
2021/07/29 02:21:24;;;;;;;;;;;;;;;16.01;100.00;100294.06;5113711;28;20004;-72
2021/07/29 02:23:50;;;;;;;;;;;;;;;15.93;100.00;100307.72;5113760;27;19959;-72
2021/07/29 02:26:16;;;;;;;;;;;;;;;15.85;100.00;100306.69;5113436;28;20391;-73
2021/07/29 02:28:44;;;;;;;;;;;;;;;15.76;100.00;100309.56;5112286;28;19968;-72
2021/07/29 02:31:11;;;;;;;;;;;;;;;15.69;100.00;100314.88;5113381;28;19959;-72
2021/07/29 02:33:37;;;;;;;;;;;;;;;15.61;100.00;100325.78;5112083;28;19924;-72
2021/07/29 02:36:04;;;;;;;;;;;;;;;15.55;100.00;100325.44;5113424;28;19977;-72
2021/07/29 02:38:31;;;;;;;;;;;;;;;15.52;100.00;100323.00;5113187;28;20471;-72
2021/07/29 02:40:57;;;;;;;;;;;;;;;15.46;100.00;100320.09;5113460;28;19930;-70
2021/07/29 02:43:23;;;;;;;;;;;;;;;15.38;100.00;100326.41;5113210;28;19931;-72
2021/07/29 02:45:51;;;;;;;;;;;;;;;15.31;100.00;100325.34;5094926;28;20021;-72
2021/07/29 02:48:17;;;;;;;;;;;;;;;15.26;100.00;100317.66;5112499;28;20028;-72
2021/07/29 02:50:44;;;;;;;;;;;;;;;15.16;100.00;100320.50;5112434;28;19924;-72
2021/07/29 02:53:10;;;;;;;;;;;;;;;15.10;100.00;100325.75;5113086;28;19973;-72
2021/07/29 02:55:36;;;;;;;;;;;;;;;15.04;100.00;100324.56;5112828;28;19927;-71
2021/07/29 02:58:03;;;;;;;;;;;;;;;15.05;100.00;100321.66;5112937;28;19924;-72
2021/07/29 03:00:30;;;;;;;;;;;;;;;15.01;100.00;100323.00;5112973;28;19993;-72
2021/07/29 03:02:57;;;;;;;;;;;;;;;15.07;100.00;100324.22;5113043;28;19938;-72
2021/07/29 03:05:26;;;;;;;;;;;;;;;15.11;100.00;100322.03;5113055;28;19928;-71
2021/07/29 03:07:52;;;;;;;;;;;;;;;15.17;100.00;100324.09;5112527;28;19959;-70
2021/07/29 03:10:19;;;;;;;;;;;;;;;15.27;100.00;100322.06;5113783;28;20337;-70
2021/07/29 03:12:45;;;;;;;;;;;;;;;15.41;100.00;100326.06;5113166;28;19923;-70
2021/07/29 03:15:12;;;;;;;;;;;;;;;15.43;100.00;100324.00;5112960;28;20356;-70
2021/07/29 03:17:38;;;;;;;;;;;;;;;15.46;100.00;100314.63;5112274;28;20389;-70
2021/07/29 03:20:06;;;;;;;;;;;;;;;15.47;100.00;100322.66;5112612;28;19970;-70
2021/07/29 03:22:33;;;;;;;;;;;;;;;15.49;100.00;100320.63;5112900;28;19955;-70
2021/07/29 03:24:59;;;;;;;;;;;;;;;15.45;100.00;100324.72;5112322;28;20413;-70
2021/07/29 03:27:25;;;;;;;;;;;;;;;15.39;100.00;100322.63;5112007;28;19977;-70
2021/07/29 03:29:52;;;;;;;;;;;;;;;15.36;100.00;100322.97;5112377;28;20291;-70
2021/07/29 03:32:18;;;;;;;;;;;;;;;15.32;100.00;100324.31;5112515;28;19927;-70
2021/07/29 03:34:44;;;;;;;;;;;;;;;15.28;100.00;100336.63;5111902;28;19955;-70
2021/07/29 03:37:12;;;;;;;;;;;;;;;15.23;100.00;100328.91;5112096;28;19969;-70
2021/07/29 03:39:38;;;;;;;;;;;;;;;15.20;100.00;100338.28;5112650;28;19923;-72
2021/07/29 03:42:05;;;;;;;;;;;;;;;15.20;100.00;100340.16;5112165;28;19924;-72
2021/07/29 03:44:31;;;;;;;;;;;;;;;15.19;100.00;100344.78;5112026;28;19966;-71
2021/07/29 03:46:57;;;;;;;;;;;;;;;15.18;100.00;100339.50;5111785;28;19923;-65
2021/07/29 03:49:24;;;;;;;;;;;;;;;15.20;100.00;100343.75;5112212;28;19959;-66
2021/07/29 03:51:50;;;;;;;;;;;;;;;15.23;100.00;100342.56;5112129;28;19928;-67
2021/07/29 03:54:17;;;;;;;;;;;;;;;15.29;100.00;100338.34;5112170;28;19928;-63
2021/07/29 03:56:44;;;;;;;;;;;;;;;15.40;100.00;100351.69;5103070;28;20019;-63
2021/07/29 03:59:10;;;;;;;;;;;;;;;15.60;100.00;100345.97;5092091;28;19932;-63
2021/07/29 04:01:36;;;;;;;;;;;;;;;15.68;100.00;100343.25;5091264;28;19989;-63
2021/07/29 04:04:03;;;;;;;;;;;;;;;15.81;100.00;100340.91;5098351;28;19924;-64
2021/07/29 04:06:29;;;;;;;;;;;;;;;15.93;100.00;100335.09;5110154;28;19963;-70
2021/07/29 04:08:55;;;;;;;;;;;;;;;16.02;100.00;100332.22;5105867;28;19924;-70
2021/07/29 04:11:23;;;;;;;;;;;;;;;16.11;100.00;100330.31;5091379;28;19928;-70
2021/07/29 04:13:49;;;;;;;;;;;;;;;16.13;100.00;100333.75;5091581;28;20389;-70
2021/07/29 04:16:15;;;;;;;;;;;;;;;16.15;100.00;100336.31;5092446;28;19979;-70
2021/07/29 04:18:43;;;;;;;;;;;;;;;16.14;100.00;100335.47;5102385;28;20395;-70
2021/07/29 04:21:13;;;;;;;;;;;;;;;16.20;100.00;100334.78;5091625;28;19943;-70
2021/07/29 04:23:39;;;;;;;;;;;;;;;16.31;100.00;100332.72;5092339;28;19924;-70
2021/07/29 04:26:06;;;;;;;;;;;;;;;16.50;100.00;100337.84;5111396;28;19923;-70
2021/07/29 04:28:33;;;;;;;;;;;;;;;16.65;100.00;100335.25;5097208;28;19946;-63
2021/07/29 04:31:00;;;;;;;;;;;;;;;16.82;100.00;100330.59;5091969;28;19968;-64
2021/07/29 04:33:26;;;;;;;;;;;;;;;17.02;100.00;100327.47;5102963;28;19959;-71
2021/07/29 04:35:52;;;;;;;;;;;;;;;17.20;100.00;100324.50;5090878;28;20384;-72
2021/07/29 04:38:18;;;;;;;;;;;;;;;17.33;100.00;100322.06;5110583;28;19967;-72
2021/07/29 04:40:45;;;;;;;;;;;;;;;17.47;100.00;100317.69;5109357;28;20015;-72
2021/07/29 04:43:11;;;;;;;;;;;;;;;17.48;100.00;100319.41;5107405;28;20356;-72
2021/07/29 04:45:39;;;;;;;;;;;;;;;17.49;100.00;100315.63;5097406;28;19978;-71
2021/07/29 04:48:05;;;;;;;;;;;;;;;17.52;100.00;100326.22;5090718;28;19982;-72
2021/07/29 04:50:31;;;;;;;;;;;;;;;17.59;100.00;100323.63;5109181;28;20011;-72
2021/07/29 04:52:58;;;;;;;;;;;;;;;17.67;100.00;100325.47;5110499;28;19924;-71
2021/07/29 04:55:24;;;;;;;;;;;;;;;17.71;100.00;100326.81;5111177;28;19927;-71
2021/07/29 04:57:50;;;;;;;;;;;;;;;17.76;100.00;100326.25;5111474;28;19924;-72
2021/07/29 05:00:17;;;;;;;;;;;;;;;17.85;100.00;100328.78;5106684;28;20050;-71
2021/07/29 05:02:44;;;;;;;;;;;;;;;17.99;100.00;100327.16;5101604;28;20292;-72
2021/07/29 05:05:11;;;;;;;;;;;;;;;18.11;100.00;100319.34;5110203;28;19924;-70
2021/07/29 05:07:37;;;;;;;;;;;;;;;18.19;100.00;100327.53;5095132;28;19928;-70
2021/07/29 05:10:04;;;;;;;;;;;;;;;18.19;100.00;100329.44;5090747;28;20337;-70
2021/07/29 05:12:30;;;;;;;;;;;;;;;18.14;100.00;100335.44;5092772;28;19966;-70
2021/07/29 05:14:57;;;;;;;;;;;;;;;18.09;100.00;100331.56;5095386;28;20345;-70
2021/07/29 05:17:23;;;;;;;;;;;;;;;18.05;100.00;100326.44;5093920;28;19924;-70
2021/07/29 05:19:51;;;;;;;;;;;;;;;18.14;100.00;100321.72;5094418;28;20376;-70
2021/07/29 05:22:17;;;;;;;;;;;;;;;18.24;100.00;100325.06;5094076;28;19988;-69
2021/07/29 05:24:44;;;;;;;;;;;;;;;18.35;100.00;100325.69;5100531;28;20382;-69
2021/07/29 05:27:10;;;;;;;;;;;;;;;18.39;100.00;100318.78;5114529;28;19951;-63
2021/07/29 05:29:36;;;;;;;;;;;;;;;18.40;100.00;100306.75;5113807;28;19931;-63
2021/07/29 05:32:03;;;;;;;;;;;;;;;18.45;100.00;100318.00;5112998;28;19924;-63
2021/07/29 05:34:29;;;;;;;;;;;;;;;18.44;100.00;100319.06;5109304;28;20310;-64
2021/07/29 05:36:57;;;;;;;;;;;;;;;18.54;100.00;100316.06;5112391;28;20386;-63
2021/07/29 05:39:24;;;;;;;;;;;;;;;18.61;100.00;100321.66;5095085;28;20739;-63
2021/07/29 05:41:50;;;;;;;;;;;;;;;18.71;100.00;100308.50;5093622;28;20387;-64
2021/07/29 05:44:16;;;;;;;;;;;;;;;18.89;100.00;100314.53;5100755;28;19970;-64
2021/07/29 05:46:43;;;;;;;;;;;;;;;19.06;100.00;100311.56;5102381;28;20395;-63
2021/07/29 05:49:09;;;;;;;;;;;;;;;19.15;100.00;100313.19;5102692;28;19980;-63
2021/07/29 05:51:35;;;;;;;;;;;;;;;19.30;100.00;100301.31;5110908;28;19924;-63
2021/07/29 05:54:03;;;;;;;;;;;;;;;19.42;100.00;100297.00;5108235;28;20008;-63
2021/07/29 05:56:29;;;;;;;;;;;;;;;19.67;100.00;100303.00;5109502;28;20422;-63
2021/07/29 05:58:56;;;;;;;;;;;;;;;20.10;100.00;100299.44;5113020;28;19923;-63
2021/07/29 06:01:22;;;;;;;;;;;;;;;20.30;100.00;100301.53;5112291;27;20016;-63
2021/07/29 06:03:48;;;;;;;;;;;;;;;20.52;100.00;100299.56;5114243;28;20108;-63
2021/07/29 06:06:15;;;;;;;;;;;;;;;20.60;100.00;100293.06;5110577;28;19923;-67
2021/07/29 06:08:41;;;;;;;;;;;;;;;20.81;100.00;100294.94;5096309;28;19978;-66
2021/07/29 06:11:09;;;;;;;;;;;;;;;20.97;100.00;100302.03;5096936;28;19924;-66
2021/07/29 06:13:35;;;;;;;;;;;;;;;21.18;100.00;100304.69;5113680;28;19962;-67
2021/07/29 06:16:02;;;;;;;;;;;;;;;21.44;100.00;100302.25;5110656;28;20388;-66
2021/07/29 06:18:29;;;;;;;;;;;;;;;21.56;100.00;100303.38;5094392;28;19928;-66
2021/07/29 06:20:56;;;;;;;;;;;;;;;21.84;100.00;100294.97;5097863;28;19924;-66
2021/07/29 06:23:23;;;;;;;;;;;;;;;22.06;100.00;100292.00;5092787;28;20028;-72
2021/07/29 06:25:49;;;;;;;;;;;;;;;22.20;100.00;100287.34;5106324;28;19951;-71
2021/07/29 06:28:17;;;;;;;;;;;;;;;22.44;100.00;100288.66;5091632;28;19924;-72
2021/07/29 06:30:43;;;;;;;;;;;;;;;22.61;100.00;100286.31;5111149;28;19928;-72
2021/07/29 06:33:09;;;;;;;;;;;;;;;22.54;100.00;100286.31;5113392;28;19931;-72
2021/07/29 06:35:36;;;;;;;;;;;;;;;22.99;100.00;100280.03;5104317;28;19924;-73
2021/07/29 06:38:02;;;;;;;;;;;;;;;23.41;100.00;100276.94;5092431;28;19965;-74
2021/07/29 06:40:28;;;;;;;;;;;;;;;23.60;100.00;100275.13;5108394;28;19958;-73
2021/07/29 06:42:54;;;;;;;;;;;;;;;24.00;100.00;100271.28;5113403;28;20024;-68
2021/07/29 06:45:22;;;;;;;;;;;;;;;23.81;100.00;100273.94;5111398;28;19966;-67
2021/07/29 06:47:48;;;;;;;;;;;;;;;23.97;100.00;100272.59;5112997;28;19930;-68
2021/07/29 06:50:15;;;;;;;;;;;;;;;24.15;100.00;100277.34;5107737;28;19991;-67
2021/07/29 06:52:41;;;;;;;;;;;;;;;24.06;100.00;100281.47;5110766;28;19928;-65
2021/07/29 06:55:08;;;;;;;;;;;;;;;23.95;100.00;100280.28;5111921;28;21527;-64
2021/07/29 06:57:34;;;;;;;;;;;;;;;23.64;100.00;100284.69;5108786;28;19923;-65
2021/07/29 07:00:00;;;;;;;;;;;;;;;23.48;100.00;100285.22;5106747;28;20300;-66
2021/07/29 07:02:28;;;;;;;;;;;;;;;23.62;100.00;100286.00;5103518;28;19970;-66
2021/07/29 07:04:54;;;;;;;;;;;;;;;23.49;100.00;100273.91;5091871;28;19928;-65
2021/07/29 07:07:21;;;;;;;;;;;;;;;23.39;100.00;100277.16;5091631;28;19969;-66
2021/07/29 07:09:47;;;;;;;;;;;;;;;23.63;100.00;100273.84;5092351;28;20407;-67
2021/07/29 07:12:13;;;;;;;;;;;;;;;23.80;100.00;100276.91;5092182;28;19963;-66
2021/07/29 07:14:40;;;;;;;;;;;;;;;24.13;100.00;100273.97;5093226;28;20378;-66
2021/07/29 07:17:07;;;;;;;;;;;;;;;24.50;100.00;100274.06;5105589;28;19974;-66
2021/07/29 07:19:34;;;;;;;;;;;;;;;24.76;100.00;100274.03;5111929;28;19949;-66
2021/07/29 07:22:01;;;;;;;;;;;;;;;24.62;100.00;100278.88;5099995;28;19925;-66
2021/07/29 07:24:28;;;;;;;;;;;;;;;24.49;100.00;100272.38;5092069;28;19977;-66
2021/07/29 07:26:56;;;;;;;;;;;;;;;23.93;100.00;100265.81;5103182;28;19971;-66
2021/07/29 07:29:22;;;;;;;;;;;;;;;23.60;100.00;100266.81;5112157;28;19947;-65
2021/07/29 07:31:49;;;;;;;;;;;;;;;23.88;100.00;100266.44;5100758;28;19928;-66
2021/07/29 07:34:15;;;;;;;;;;;;;;;24.56;99.57;100264.81;5099836;28;19985;-64
2021/07/29 07:36:43;;;;;;;;;;;;;;;25.07;89.98;100264.75;5091202;28;20436;-63
2021/07/29 07:39:10;;;;;;;;;;;;;;;24.78;87.78;100266.34;5094519;28;19923;-63
2021/07/29 07:41:37;;;;;;;;;;;;;;;24.92;90.54;100267.03;5111977;28;20412;-63
2021/07/29 07:44:03;;;;;;;;;;;;;;;24.90;89.19;100270.91;5110371;28;19939;-62
2021/07/29 07:46:29;;;;;;;;;;;;;;;24.94;90.09;100257.41;5091468;28;19924;-62
2021/07/29 07:48:56;;;;;;;;;;;;;;;24.96;92.59;100257.19;5092228;28;19928;-63
2021/07/29 07:51:22;;;;;;;;;;;;;;;25.40;85.93;100258.81;5111939;28;19928;-70
2021/07/29 07:53:50;;;;;;;;;;;;;;;25.36;80.52;100246.47;5110043;28;19973;-71
2021/07/29 07:56:17;;;;;;;;;;;;;;;25.84;82.27;100246.63;5111471;28;20367;-70
2021/07/29 07:58:43;;;;;;;;;;;;;;;25.40;79.63;100241.25;5110749;28;19931;-70
2021/07/29 08:01:09;;;;;;;;;;;;;;;26.30;78.51;100238.66;5100890;28;19989;-71
2021/07/29 08:03:36;;;;;;;;;;;;;;;25.89;79.33;100258.72;5108597;28;19927;-70
2021/07/29 08:06:02;;;;;;;;;;;;;;;25.67;79.90;100246.44;5110759;28;19927;-70
2021/07/29 08:08:29;;;;;;;;;;;;;;;25.58;82.19;100253.44;5110957;28;19924;-70
2021/07/29 08:10:56;;;;;;;;;;;;;;;24.93;89.05;100257.66;5110108;28;19927;-70
2021/07/29 08:13:22;;;;;;;;;;;;;;;23.60;94.09;100252.09;5106549;28;19970;-69
2021/07/29 08:15:49;;;;;;;;;;;;;;;22.79;96.98;100257.13;5091434;28;19971;-70
2021/07/29 08:18:15;;;;;;;;;;;;;;;22.34;100.00;100252.25;5091683;28;19924;-69
2021/07/29 08:20:44;;;;;;;;;;;;;;;22.36;100.00;100251.00;5100794;28;19931;-70
2021/07/29 08:23:10;;;;;;;;;;;;;;;22.04;100.00;100241.66;5094318;28;19930;-70
2021/07/29 08:25:36;;;;;;;;;;;;;;;22.61;100.00;100244.81;5111446;28;19951;-70
2021/07/29 08:28:04;;;;;;;;;;;;;;;23.78;100.00;100251.38;5097598;28;19928;-71
2021/07/29 08:30:31;;;;;;;;;;;;;;;23.96;96.97;100242.31;5091600;28;19925;-70
2021/07/29 08:32:57;;;;;;;;;;;;;;;23.82;96.08;100242.38;5107200;28;20039;-70
2021/07/29 08:35:24;;;;;;;;;;;;;;;23.53;100.00;100244.72;5111358;28;20454;-70
2021/07/29 08:37:51;;;;;;;;;;;;;;;23.34;100.00;100254.81;5095702;28;19924;-71
2021/07/29 08:40:18;;;;;;;;;;;;;;;23.26;100.00;100249.53;5098810;28;20337;-70
2021/07/29 08:42:44;;;;;;;;;;;;;;;23.20;100.00;100256.78;5108334;28;19924;-69
2021/07/29 08:45:12;;;;;;;;;;;;;;;22.97;100.00;100256.41;5100408;28;19924;-69
2021/07/29 08:47:41;;;;;;;;;;;;;;;22.72;100.00;100248.84;5092203;28;19963;-69
2021/07/29 08:50:08;;;;;;;;;;;;;;;22.80;100.00;100245.84;5096053;28;19924;-69
2021/07/29 08:52:34;;;;;;;;;;;;;;;23.06;100.00;100230.19;5115323;28;19928;-69
2021/07/29 08:55:01;;;;;;;;;;;;;;;23.12;100.00;100245.94;5107390;28;19924;-69
2021/07/29 08:57:28;;;;;;;;;;;;;;;23.54;100.00;100240.00;5109412;28;20053;-69
2021/07/29 08:59:55;;;;;;;;;;;;;;;23.79;100.00;100242.81;5109387;28;19943;-68
2021/07/29 09:02:24;;;;;;;;;;;;;;;23.22;100.00;100246.38;5114138;28;20033;-68
2021/07/29 09:05:06;;;;;;;;;;;;;;;23.03;100.00;100247.25;5096791;28;20019;-70
2021/07/29 09:07:33;;;;;;;;;;;;;;;22.86;100.00;100246.88;5092732;28;19924;-69
2021/07/29 09:10:00;;;;;;;;;;;;;;;23.38;100.00;100238.59;5094189;28;20303;-70
2021/07/29 09:12:26;;;;;;;;;;;;;;;24.42;94.49;100257.69;5114098;28;19932;-68
2021/07/29 09:14:53;;;;;;;;;;;;;;;24.93;83.11;100241.81;5111850;28;19923;-71
2021/07/29 09:17:20;;;;;;;;;;;;;;;24.98;83.87;100244.75;5112907;28;20338;-69
2021/07/29 09:19:49;;;;;;;;;;;;;;;26.16;79.12;100238.00;5113896;28;19966;-71
2021/07/29 09:22:16;;;;;;;;;;;;;;;26.03;72.14;100252.97;5114150;28;20031;-68
2021/07/29 09:25:00;;;;;;;;;;;;;;;25.26;78.53;100254.47;5103483;28;19928;-64
2021/07/29 09:27:27;;;;;;;;;;;;;;;24.06;83.56;100243.53;5092982;28;20364;-61
2021/07/29 09:29:53;;;;;;;;;;;;;;;23.31;93.24;100254.41;5094257;28;20550;-61
2021/07/29 09:32:21;;;;;;;;;;;;;;;22.52;97.79;100255.25;5093897;28;19971;-61
2021/07/29 09:34:50;;;;;;;;;;;;;;;22.21;100.00;100253.97;5106954;28;19923;-62
2021/07/29 09:37:17;;;;;;;;;;;;;;;21.83;100.00;100257.38;5105055;28;19969;-62
2021/07/29 09:39:43;;;;;;;;;;;;;;;21.66;100.00;100261.56;5114255;28;19977;-62
2021/07/29 09:42:17;;;;;;;;;;;;;;;21.50;100.00;100258.09;5111428;28;19928;-62
2021/07/29 09:44:44;;;;;;;;;;;;;;;21.41;100.00;100259.34;5112418;28;19930;-62
2021/07/29 09:47:11;;;;;;;;;;;;;;;21.30;100.00;100268.22;5113344;28;19927;-63
2021/07/29 09:49:37;;;;;;;;;;;;;;;21.22;100.00;100256.31;5112528;28;19924;-62
2021/07/29 09:52:05;;;;;;;;;;;;;;;21.17;100.00;100258.00;5113111;28;19927;-62
2021/07/29 09:54:34;;;;;;;;;;;;;;;21.36;100.00;100256.34;5112887;28;20391;-62
2021/07/29 09:57:00;;;;;;;;;;;;;;;21.57;100.00;100259.00;5113275;28;20432;-62
2021/07/29 09:59:26;;;;;;;;;;;;;;;21.67;100.00;100246.69;5111316;28;19989;-62
2021/07/29 10:01:53;;;;;;;;;;;;;;;21.58;100.00;100254.34;5106491;28;19963;-62
2021/07/29 10:04:24;;;;;;;;;;;;;;;21.69;100.00;100261.16;5093253;28;19928;-70
2021/07/29 10:06:52;;;;;;;;;;;;;;;21.85;100.00;100258.00;5093048;28;20277;-70
2021/07/29 10:09:22;;;;;;;;;;;;;;;21.70;100.00;100252.66;5093173;28;19963;-69
2021/07/29 10:11:50;;;;;;;;;;;;;;;21.68;100.00;100264.97;5095235;28;19924;-70
2021/07/29 10:14:31;;;;;;;;;;;;;;;21.69;100.00;100261.16;5097031;28;19924;-63
2021/07/29 10:16:59;;;;;;;;;;;;;;;22.02;100.00;100254.81;5092310;28;19971;-63
2021/07/29 10:19:25;;;;;;;;;;;;;;;22.10;100.00;100259.28;5107685;28;19931;-63
2021/07/29 10:21:51;;;;;;;;;;;;;;;21.95;100.00;100265.00;5111884;28;20033;-63
2021/07/29 10:24:19;;;;;;;;;;;;;;;21.92;100.00;100254.41;5101629;28;19967;-63
2021/07/29 10:27:04;;;;;;;;;;;;;;;21.90;100.00;100246.31;5109163;28;20032;-63
2021/07/29 10:29:30;;;;;;;;;;;;;;;23.51;100.00;100238.53;5111120;28;20341;-70
2021/07/29 10:31:57;;;;;;;;;;;;;;;24.06;100.00;100229.66;5112923;28;19924;-63
2021/07/29 10:34:25;;;;;;;;;;;;;;;25.21;93.65;100232.97;5111320;28;20009;-63
2021/07/29 10:36:51;;;;;;;;;;;;;;;26.13;80.92;100227.38;5091593;28;20024;-63
2021/07/29 10:39:19;;;;;;;;;;;;;;;26.14;74.80;100227.13;5092729;28;19974;-70
2021/07/29 10:41:46;;;;;;;;;;;;;;;26.34;72.13;100223.16;5092636;28;19928;-70
2021/07/29 10:44:31;;;;;;;;;;;;;;;26.36;67.71;100221.84;5095735;28;19931;-70
2021/07/29 10:47:01;;;;;;;;;;;;;;;26.28;73.50;100227.75;5091672;28;19977;-70
2021/07/29 10:49:57;;;;;;;;;;;;;;;26.45;62.58;100219.53;5109729;28;19953;-70
2021/07/29 10:52:25;;;;;;;;;;;;;;;26.43;63.85;100215.28;5104307;28;19932;-70
2021/07/29 10:54:52;;;;;;;;;;;;;;;26.34;63.34;100221.22;5114260;27;20479;-71
2021/07/29 10:57:19;;;;;;;;;;;;;;;26.89;61.11;100221.94;5110854;28;19966;-62
2021/07/29 10:59:45;;;;;;;;;;;;;;;27.22;56.98;100225.97;5111940;28;19970;-64
2021/07/29 11:02:14;;;;;;;;;;;;;;;26.61;53.27;100223.50;5100393;28;20456;-70
2021/07/29 11:04:53;;;;;;;;;;;;;;;26.59;52.87;100206.22;5112718;28;20283;-70
2021/07/29 11:07:20;;;;;;;;;;;;;;;26.92;55.01;100218.66;5091271;28;19924;-71
2021/07/29 11:09:46;;;;;;;;;;;;;;;27.54;50.69;100220.78;5090469;28;19942;-70
2021/07/29 11:12:15;;;;;;;;;;;;;;;26.94;49.27;100213.69;5092988;28;19928;-62
2021/07/29 11:14:41;;;;;;;;;;;;;;;25.95;48.64;100225.50;5092984;28;19924;-63
2021/07/29 11:17:08;;;;;;;;;;;;;;;25.02;51.78;100234.06;5099662;28;19976;-63
2021/07/29 11:19:43;;;;;;;;;;;;;;;24.57;54.24;100233.25;5111479;28;19928;-63
2021/07/29 11:22:10;;;;;;;;;;;;;;;24.32;57.46;100240.72;5102557;28;19924;-64
2021/07/29 11:24:37;;;;;;;;;;;;;;;24.82;55.30;100234.28;5093010;28;19932;-70
2021/07/29 11:27:06;;;;;;;;;;;;;;;24.67;54.21;100231.91;5105085;28;19951;-70
2021/07/29 11:29:34;;;;;;;;;;;;;;;24.29;55.57;100247.59;5112654;28;19924;-70
2021/07/29 11:32:00;;;;;;;;;;;;;;;24.01;57.40;100240.56;5110514;28;19923;-70
2021/07/29 11:34:30;;;;;;;;;;;;;;;24.97;55.08;100236.66;5112447;28;19985;-70
2021/07/29 11:36:57;;;;;;;;;;;;;;;24.98;55.92;100233.66;5098293;28;20022;-70
2021/07/29 11:39:24;;;;;;;;;;;;;;;24.39;55.43;100224.88;5091622;28;19932;-71
2021/07/29 11:41:52;;;;;;;;;;;;;;;24.16;58.84;100225.50;5092805;28;19935;-64
2021/07/29 11:44:19;;;;;;;;;;;;;;;25.14;58.91;100234.97;5091350;28;19925;-63
2021/07/29 11:46:53;;;;;;;;;;;;;;;25.60;57.58;100224.31;5091509;28;19977;-63
2021/07/29 11:49:19;;;;;;;;;;;;;;;25.84;56.31;100230.81;5091302;28;19963;-63
2021/07/29 11:52:01;;;;;;;;;;;;;;;25.63;54.13;100223.00;5095708;28;19931;-66
2021/07/29 11:54:31;;;;;;;;;;;;;;;25.04;57.53;100227.19;5097650;28;20036;-66
2021/07/29 11:56:58;;;;;;;;;;;;;;;24.65;61.10;100225.72;5091359;28;19971;-63
2021/07/29 11:59:24;;;;;;;;;;;;;;;25.44;61.18;100219.44;5092270;28;19981;-65
2021/07/29 12:01:52;;;;;;;;;;;;;;;26.23;59.80;100217.34;5091161;28;19962;-66
2021/07/29 12:04:20;;;;;;;;;;;;;;;26.90;54.97;100220.84;5105082;28;19927;-66
2021/07/29 12:06:46;;;;;;;;;;;;;;;26.75;52.43;100212.16;5111535;28;19928;-65
2021/07/29 12:09:13;;;;;;;;;;;;;;;27.37;51.87;100208.75;5111326;28;19927;-64
2021/07/29 12:11:40;;;;;;;;;;;;;;;27.26;50.42;100213.22;5111822;28;19963;-65
2021/07/29 12:14:06;;;;;;;;;;;;;;;27.23;48.85;100231.28;5110058;28;20418;-64
2021/07/29 12:16:43;;;;;;;;;;;;;;;25.95;51.32;100209.69;5101962;28;20053;-65
2021/07/29 12:19:09;;;;;;;;;;;;;;;25.61;52.27;100217.69;5100622;28;19924;-65
2021/07/29 12:21:37;;;;;;;;;;;;;;;25.69;51.71;100222.06;5102318;28;19977;-65
2021/07/29 12:24:03;;;;;;;;;;;;;;;26.03;54.61;100217.69;5099322;28;20295;-66
2021/07/29 12:26:29;;;;;;;;;;;;;;;26.40;48.94;100199.94;5105013;28;19928;-65
2021/07/29 12:28:56;;;;;;;;;;;;;;;27.38;49.40;100216.84;5111648;28;19935;-66